• Join FlightAware (Why Join?)
  • Login
  • US Flag 
08:06PM EDT


 

Airport Tracker/Info


-or-


 

Live Flight TrackerFlight Track Log ✈ LBQ652 ✈ 08-May-2013 ✈ KPTK - KDPA

Flight Track Log - Related Links

Times and Time Zones

All times are in EDT time to prevent confusion due to time zone crossing. See the LBQ652 flight status page for this flight to view local times or setup timezone preferences in your user account.

Time Position Orientation Groundspeed Altitude Reporting Facility
EDT Latitude Longitude Course Direction KTS MPH feet Rate Location/Type
02:42AM 42.6000 -83.9061 251° West 272 313 12,500  Level Chicago Center
02:43AM 42.5822 -84.0125 257° West 368 423 13,900 1,620 Climbing Cleveland Center
02:44AM 42.5664 -84.1186 259° West 325 374 15,700 1,740 Climbing Cleveland Center
02:45AM 42.5525 -84.2278 260° West 307 353 17,400 1,620 Climbing Cleveland Center
02:46AM 42.5408 -84.3314 261° West 309 356 18,800 1,500 Climbing Cleveland Center
02:47AM 42.4968 -84.5463 251° West  Level FlightAware Approximate
02:47AM 42.5244 -84.4489 259° West 321 369 20,300  Level Cleveland Center
02:48AM 42.5036 -84.5717 257° West 321 369 21,900 1,320 Climbing Cleveland Center
02:49AM 42.4892 -84.6861 260° West 327 376 23,000 1,140 Climbing Cleveland Center
02:50AM 42.4678 -84.8286 259° West 336 387 24,400 1,200 Climbing Chicago Center
02:51AM 42.4492 -84.9528 259° West 337 388 25,700 1,260 Climbing Chicago Center
02:52AM 42.4300 -85.0767 258° West 337 388 27,000 1,140 Climbing Chicago Center
02:53AM 42.4119 -85.2006 259° West 336 387 28,000 480 Climbing Chicago Center
02:54AM 42.3919 -85.3336 259° West 350 403 28,000  Level Chicago Center
02:55AM 42.3706 -85.4742 258° West 371 427 28,000  Level Chicago Center
02:56AM 42.3481 -85.6156 258° West 381 438 28,000  Level Chicago Center
02:57AM 42.3258 -85.7575 258° West 385 443 28,000  Level Chicago Center
02:58AM 42.3028 -85.9019 258° West 391 450 28,000  Level Chicago Center
02:59AM 42.2842 -86.0281 259° West 388 447 28,000  Level Chicago Center
03:00AM 42.2600 -86.1686 257° West 388 447 28,000  Level Chicago Center
03:01AM 42.2375 -86.3097 258° West 388 447 28,000 -180 Level Chicago Center
03:02AM 42.2144 -86.4506 258° West 387 445 27,700 -1,200 Descending Chicago Center
03:03AM 42.1908 -86.5936 257° West 391 450 25,600 -2,100 Descending Chicago Center
03:04AM 42.1692 -86.7408 259° West 366 421 23,500 -2,040 Descending Chicago Center
03:05AM 42.1472 -86.8683 257° West 353 406 21,600 -1,860 Descending Chicago Center
03:06AM 42.1269 -86.9958 258° West 351 404 19,800 -1,860 Descending Chicago Center
03:07AM 42.1033 -87.1206 256° West 346 398 17,900 -1,800 Descending Chicago Center
03:08AM 42.0831 -87.2442 258° West 342 394 16,200 -1,740 Descending Chicago Center
03:09AM 42.0622 -87.3639 257° West 334 384 14,400 -1,740 Descending Chicago Center
03:10AM 42.0419 -87.4814 257° West 328 377 12,700 -1,860 Descending Chicago Center
03:11AM 42.0167 -87.6333 257° West 320 368 10,600 -1,860 Descending Chicago TRACON
03:12AM 42.0000 -87.7333 257° West 308 354 8,900 -1,680 Descending Chicago TRACON
03:13AM 41.9833 -87.8500 259° West 304 350 7,300 -1,560 Descending Chicago TRACON
03:14AM 41.9667 -87.9500 257° West 358 412 5,800 -1,560 Descending Chicago TRACON
03:15AM 41.9500 -88.0667 259° West 279 321 4,200 -1,440 Descending Chicago TRACON
03:16AM 41.9461 -88.1528 267° West 277 319 3,100 -1,020 Descending Chicago Center
03:17AM 41.9581 -88.2167 284° West 214 246 2,300 -960 Descending Chicago Center
03:18AM 41.9319 -88.2417 215° Southwest 158 182 1,200 -780 Descending Chicago Center
03:19AM 41.9100 -88.2486 193° South 130 150 800 -420 Descending Chicago Center